Time;durP1;ratioP1;P1;durP2;ratioP2;P2;SDS_P1;SDS_P2;PMS_P1;PMS_P2;Temp;Humidity;BMP_temperature;BMP_pressure;BME280_temperature;BME280_humidity;BME280_pressure;Samples;Min_cycle;Max_cycle;Signal;HPM_P1;HPM_P2
2023/10/07 00:00:47;;;;;;;;;;;;;;;27.15;37.77;101633.25;5079032;28;1054;-29
2023/10/07 00:03:14;;;;;;;;;;;;;;;27.00;38.05;101625.75;5097720;28;1086;-31
2023/10/07 00:05:42;;;;;;;;;;;;;;;27.10;38.17;101622.09;5092171;28;1049;-28
2023/10/07 00:08:12;;;;;;;;;;;;;;;27.13;37.81;101625.31;5089978;28;1038;-31
2023/10/07 00:10:41;;;;;;;;;;;;;;;27.00;38.33;101620.34;5084645;28;2015;-31
2023/10/07 00:13:09;;;;;;;;;;;;;;;27.01;38.11;101613.06;5077021;28;1070;-29
2023/10/07 00:15:38;;;;;;;;;;;;;;;27.11;37.87;101610.31;5071742;28;1419;-35
2023/10/07 00:18:46;;;;;;;;;;;;;;;27.06;38.16;101609.94;5096785;28;1136;-31
2023/10/07 00:20:55;;;;;;;;;;;;;;;27.13;37.77;101606.41;5075903;28;1552;-29
2023/10/07 00:23:22;;;;;;;;;;;;;;;27.11;37.58;101596.81;5081005;28;909;-29
2023/10/07 00:25:51;;;;;;;;;;;;;;;27.07;37.89;101598.97;5085759;28;1142;-30
2023/10/07 00:28:32;;;;;;;;;;;;;;;27.09;37.71;101602.34;5081537;28;1042;-33
2023/10/07 00:31:12;;;;;;;;;;;;;;;27.06;38.14;101597.25;5065169;28;1898;-31
2023/10/07 00:34:02;;;;;;;;;;;;;;;27.00;38.15;101600.59;5065077;28;1087;-32
2023/10/07 00:36:49;;;;;;;;;;;;;;;27.22;37.72;101603.75;5096348;28;1023;-32
2023/10/07 00:39:20;;;;;;;;;;;;;;;27.21;37.65;101594.78;5094444;28;1415;-29
2023/10/07 00:41:46;;;;;;;;;;;;;;;27.35;37.52;101590.63;5068301;28;1131;-31
2023/10/07 00:44:47;;;;;;;;;;;;;;;27.22;37.61;101596.50;5094180;28;1041;-29
2023/10/07 00:49:40;;;;;;;;;;;;;;;27.20;37.60;101595.81;5109138;28;1968;-27
2023/10/07 00:52:11;;;;;;;;;;;;;;;27.28;37.51;101586.88;5076906;28;1137;-28
2023/10/07 00:55:17;;;;;;;;;;;;;;;27.25;37.65;101579.09;5075466;28;1059;-28
2023/10/07 01:00:00;;;;;;;;;;;;;;;27.08;38.15;101580.91;5076738;28;991;-28
2023/10/07 01:02:30;;;;;;;;;;;;;;;27.10;37.93;101582.44;5076723;28;1082;-30
2023/10/07 01:05:00;;;;;;;;;;;;;;;26.96;38.44;101578.47;5075011;28;1700;-30
2023/10/07 01:07:27;;;;;;;;;;;;;;;27.01;38.15;101580.66;5076548;28;1117;-32
2023/10/07 01:10:01;;;;;;;;;;;;;;;27.07;38.50;101580.06;5076053;28;1921;-29
2023/10/07 01:12:35;;;;;;;;;;;;;;;27.14;38.09;101577.56;5076460;28;1074;-28
2023/10/07 01:15:03;;;;;;;;;;;;;;;27.05;38.32;101578.53;5075224;28;1131;-30
2023/10/07 01:17:30;;;;;;;;;;;;;;;27.04;38.09;101576.84;5076314;28;1062;-30
2023/10/07 01:19:56;;;;;;;;;;;;;;;27.07;38.22;101584.63;5076163;28;1125;-31
2023/10/07 01:22:35;;;;;;;;;;;;;;;27.07;38.30;101582.78;5076597;28;1082;-27
2023/10/07 01:25:06;;;;;;;;;;;;;;;27.10;38.37;101578.88;5076364;28;1226;-27
2023/10/07 01:27:35;;;;;;;;;;;;;;;26.95;38.44;101576.78;5074628;28;1163;-31
2023/10/07 01:30:12;;;;;;;;;;;;;;;27.00;38.28;101578.97;5075841;28;1914;-31
2023/10/07 01:32:48;;;;;;;;;;;;;;;27.07;38.16;101584.63;5076525;28;1153;-30
2023/10/07 01:35:24;;;;;;;;;;;;;;;27.03;38.31;101586.78;5075889;28;836;-28
2023/10/07 01:37:52;;;;;;;;;;;;;;;26.98;38.68;101581.00;5074770;28;1158;-31
2023/10/07 01:40:17;;;;;;;;;;;;;;;27.03;38.38;101578.69;5076024;28;1194;-31
2023/10/07 01:42:43;;;;;;;;;;;;;;;27.04;38.37;101584.94;5075936;28;1082;-33
2023/10/07 01:45:21;;;;;;;;;;;;;;;27.02;38.54;101577.88;5086442;28;1287;-31
2023/10/07 01:47:48;;;;;;;;;;;;;;;26.96;38.79;101578.47;5085339;28;1211;-30
2023/10/07 01:50:15;;;;;;;;;;;;;;;27.06;38.73;101586.47;5095904;28;1973;-29
2023/10/07 01:52:45;;;;;;;;;;;;;;;27.09;38.72;101591.53;5090563;28;1073;-30
2023/10/07 01:55:11;;;;;;;;;;;;;;;27.17;38.28;101581.78;5089082;28;1118;-28
2023/10/07 01:57:40;;;;;;;;;;;;;;;27.13;38.49;101587.50;5077182;28;931;-34
2023/10/07 02:00:07;;;;;;;;;;;;;;;27.06;38.66;101583.75;5072832;28;1229;-30
2023/10/07 02:02:48;;;;;;;;;;;;;;;27.09;38.62;101577.19;5096303;28;1007;-31
2023/10/07 02:05:15;;;;;;;;;;;;;;;26.96;38.65;101578.47;5095997;28;1050;-29
2023/10/07 02:07:43;;;;;;;;;;;;;;;27.01;38.21;101573.44;5096116;28;1039;-30
2023/10/07 02:10:12;;;;;;;;;;;;;;;27.05;38.20;101583.91;5094362;28;1913;-28
2023/10/07 02:12:38;;;;;;;;;;;;;;;27.01;38.34;101572.56;5067338;28;1114;-30
2023/10/07 02:15:10;;;;;;;;;;;;;;;27.00;38.82;101579.84;5077900;28;1278;-31
2023/10/07 02:17:36;;;;;;;;;;;;;;;26.96;38.55;101575.75;5067927;28;1217;-31
2023/10/07 02:20:38;;;;;;;;;;;;;;;27.05;38.55;101578.53;5088910;28;1121;-31
2023/10/07 02:22:53;;;;;;;;;;;;;;;26.99;38.77;101577.31;5083480;28;1361;-29
2023/10/07 02:25:26;;;;;;;;;;;;;;;26.97;38.52;101574.75;5070614;28;1222;-31
2023/10/07 02:27:54;;;;;;;;;;;;;;;27.01;38.35;101572.56;5089639;28;1063;-29
2023/10/07 02:30:19;;;;;;;;;;;;;;;26.99;38.43;101571.91;5083909;28;1917;-29
2023/10/07 02:32:46;;;;;;;;;;;;;;;27.03;38.32;101567.88;5082032;28;1162;-28
2023/10/07 02:35:17;;;;;;;;;;;;;;;27.05;38.37;101573.97;5094939;28;1077;-30
2023/10/07 02:37:49;;;;;;;;;;;;;;;26.98;38.60;101568.34;5095595;28;1062;-30
2023/10/07 02:40:35;;;;;;;;;;;;;;;26.95;38.73;101574.06;5095459;28;1166;-29
2023/10/07 02:43:07;;;;;;;;;;;;;;;26.95;38.69;101570.50;5077135;28;1322;-31
2023/10/07 02:45:42;;;;;;;;;;;;;;;26.95;38.77;101571.38;5073381;28;1236;-29
2023/10/07 02:48:11;;;;;;;;;;;;;;;27.03;38.29;101570.59;5077195;28;916;-28
2023/10/07 02:50:41;;;;;;;;;;;;;;;26.92;38.86;101568.16;5078907;28;1913;-31
2023/10/07 02:53:16;;;;;;;;;;;;;;;27.05;38.21;101567.72;5078992;28;1229;-30
2023/10/07 02:55:54;;;;;;;;;;;;;;;27.04;38.59;101563.34;5078467;28;1135;-31
2023/10/07 02:58:48;;;;;;;;;;;;;;;27.14;38.57;101578.38;5079040;28;1054;-28
2023/10/07 03:01:17;;;;;;;;;;;;;;;26.96;38.67;101570.34;5078805;28;1103;-30
2023/10/07 03:03:49;;;;;;;;;;;;;;;27.06;38.67;101572.97;5077522;28;1016;-27
2023/10/07 03:06:17;;;;;;;;;;;;;;;27.05;38.53;101570.41;5078789;28;1078;-30
2023/10/07 03:08:49;;;;;;;;;;;;;;;26.99;38.61;101574.59;5078679;28;1075;-28
2023/10/07 03:11:21;;;;;;;;;;;;;;;26.99;38.83;101567.31;5077767;28;1430;-32
2023/10/07 03:13:46;;;;;;;;;;;;;;;27.02;38.45;101569.75;5078878;28;1127;-29
2023/10/07 03:24:10;;;;;;;;;;;;;;;26.12;34.23;101569.00;5080356;28;2114;-30
2023/10/07 03:26:37;;;;;;;;;;;;;;;25.91;34.32;101570.16;5077919;28;2230;-28
2023/10/07 03:29:05;;;;;;;;;;;;;;;25.60;35.30;101565.13;5072369;28;1898;-31
2023/10/07 03:34:09;;;;;;;;;;;;;;;25.02;34.44;101568.03;5073096;28;1227;-27
2023/10/07 03:36:41;;;;;;;;;;;;;;;25.17;34.48;101573.72;5075933;28;1147;-29
2023/10/07 03:41:47;;;;;;;;;;;;;;;24.86;34.67;101567.78;5074467;28;1343;-27
2023/10/07 03:44:16;;;;;;;;;;;;;;;24.82;33.00;101567.22;5073749;28;1116;-28
2023/10/07 03:46:43;;;;;;;;;;;;;;;24.56;33.74;101565.16;5074310;28;1166;-29
2023/10/07 03:49:08;;;;;;;;;;;;;;;24.48;33.72;101565.88;5073616;28;1890;-28
2023/10/07 03:51:35;;;;;;;;;;;;;;;24.75;33.77;101566.09;5076080;28;1109;-29
2023/10/07 03:54:03;;;;;;;;;;;;;;;25.29;34.33;101577.06;5078180;28;1023;-32
2023/10/07 03:56:28;;;;;;;;;;;;;;;25.99;33.57;101580.16;5075974;28;1034;-29
2023/10/07 03:58:55;;;;;;;;;;;;;;;26.35;33.77;101571.22;5076408;28;1087;-30
2023/10/07 04:01:22;;;;;;;;;;;;;;;26.59;33.97;101572.34;5077486;28;2299;-29
2023/10/07 04:03:49;;;;;;;;;;;;;;;26.65;33.94;101576.28;5083993;28;1374;-30
2023/10/07 04:06:20;;;;;;;;;;;;;;;26.45;33.17;101576.50;5077014;28;1158;-36
2023/10/07 04:08:52;;;;;;;;;;;;;;;26.44;32.76;101587.44;5077225;28;1902;-30
2023/10/07 04:11:26;;;;;;;;;;;;;;;26.13;32.46;101584.16;5076735;28;1075;-32
2023/10/07 04:13:53;;;;;;;;;;;;;;;26.29;32.56;101582.59;5083915;28;1014;-30
2023/10/07 04:16:25;;;;;;;;;;;;;;;26.30;32.45;101592.38;5082726;28;1098;-28
2023/10/07 04:18:50;;;;;;;;;;;;;;;26.31;32.32;101591.34;5077072;28;1102;-31
2023/10/07 04:21:16;;;;;;;;;;;;;;;26.38;31.98;101589.78;5076817;28;1070;-32
2023/10/07 04:23:44;;;;;;;;;;;;;;;26.48;31.77;101596.91;5076974;28;1110;-32
2023/10/07 04:26:11;;;;;;;;;;;;;;;26.43;31.86;101599.22;5077133;28;1166;-28
2023/10/07 04:28:39;;;;;;;;;;;;;;;26.26;31.73;101599.06;5076705;28;1014;-32
2023/10/07 04:31:10;;;;;;;;;;;;;;;25.21;32.65;101597.69;5076580;28;1909;-43
2023/10/07 04:33:40;;;;;;;;;;;;;;;24.76;33.12;101598.22;5076058;28;907;-42
2023/10/07 04:36:14;;;;;;;;;;;;;;;24.37;33.17;101593.81;5076452;28;1047;-42
2023/10/07 04:46:42;;;;;;;;;;;;;;;24.65;33.30;101593.03;5065710;28;1007;-37
2023/10/07 04:49:14;;;;;;;;;;;;;;;24.98;32.76;101592.66;5075049;28;1898;-40
2023/10/07 04:54:10;;;;;;;;;;;;;;;25.53;32.20;101594.50;5059568;28;1121;-39
2023/10/07 04:56:36;;;;;;;;;;;;;;;25.73;31.93;101590.84;5072436;28;935;-38
2023/10/07 04:59:09;;;;;;;;;;;;;;;25.82;31.52;101597.19;5073428;28;1328;-39
2023/10/07 05:01:35;;;;;;;;;;;;;;;25.88;31.89;101599.25;5077320;28;887;-35
2023/10/07 05:04:04;;;;;;;;;;;;;;;25.84;31.54;101596.00;5072258;28;1288;-38
2023/10/07 05:06:34;;;;;;;;;;;;;;;25.86;31.80;101590.50;5072769;28;1027;-36
2023/10/07 05:09:03;;;;;;;;;;;;;;;25.85;31.91;101586.09;5073578;28;1914;-37
2023/10/07 05:11:31;;;;;;;;;;;;;;;25.94;31.60;101597.81;5073779;28;1097;-38
2023/10/07 05:13:57;;;;;;;;;;;;;;;25.98;31.73;101596.47;5085401;28;1269;-36
2023/10/07 05:16:22;;;;;;;;;;;;;;;26.07;31.86;101589.31;5077248;28;1115;-38
2023/10/07 05:18:47;;;;;;;;;;;;;;;26.10;31.82;101589.00;5076626;28;1102;-36
2023/10/07 05:21:16;;;;;;;;;;;;;;;26.20;32.05;101591.63;5076553;28;1135;-37
2023/10/07 05:23:41;;;;;;;;;;;;;;;26.06;31.97;101588.47;5075379;28;1222;-37
2023/10/07 05:26:09;;;;;;;;;;;;;;;26.47;31.71;101596.09;5076508;28;1062;-36
2023/10/07 05:28:34;;;;;;;;;;;;;;;26.44;31.42;101590.16;5076311;28;1019;-34
2023/10/07 05:31:03;;;;;;;;;;;;;;;26.46;31.60;101594.38;5075652;28;1918;-37
2023/10/07 05:33:32;;;;;;;;;;;;;;;26.47;31.97;101596.09;5076070;28;1078;-35
2023/10/07 05:36:03;;;;;;;;;;;;;;;26.52;31.69;101601.84;5076072;28;1097;-37
2023/10/07 05:38:30;;;;;;;;;;;;;;;26.46;31.72;101601.63;5062974;28;931;-37
2023/10/07 05:41:00;;;;;;;;;;;;;;;26.40;32.17;101597.69;5075688;28;1054;-35
2023/10/07 05:43:28;;;;;;;;;;;;;;;26.48;32.19;101599.59;5106555;28;1069;-36
2023/10/07 05:45:54;;;;;;;;;;;;;;;26.48;32.02;101607.69;5091948;28;1122;-36
2023/10/07 05:48:20;;;;;;;;;;;;;;;26.44;32.27;101609.03;5090398;28;1128;-35
2023/10/07 05:50:46;;;;;;;;;;;;;;;26.41;32.65;101616.44;5089598;28;1909;-36
2023/10/07 05:53:11;;;;;;;;;;;;;;;26.56;32.53;101612.31;5075085;28;1116;-35
2023/10/07 05:55:39;;;;;;;;;;;;;;;26.51;32.44;101615.47;5063022;28;1365;-36
2023/10/07 05:58:04;;;;;;;;;;;;;;;26.66;32.10;101610.34;5074809;28;1090;-36
2023/10/07 06:00:33;;;;;;;;;;;;;;;26.67;32.56;101616.59;5074345;28;1455;-37
2023/10/07 06:03:11;;;;;;;;;;;;;;;26.54;32.23;101607.09;5059638;28;1167;-38
2023/10/07 06:05:37;;;;;;;;;;;;;;;26.59;32.64;101604.72;5075889;28;1592;-38
2023/10/07 06:08:05;;;;;;;;;;;;;;;26.85;32.05;101609.28;5087338;28;864;-36
2023/10/07 06:10:33;;;;;;;;;;;;;;;26.94;31.96;101593.13;5090517;28;1976;-38
2023/10/07 06:12:59;;;;;;;;;;;;;;;26.76;32.17;101597.59;5078697;28;1146;-37
2023/10/07 06:15:24;;;;;;;;;;;;;;;26.89;31.87;101597.16;5088912;28;1189;-36
2023/10/07 06:17:50;;;;;;;;;;;;;;;26.85;32.43;101593.09;5076034;28;1047;-34
2023/10/07 06:20:15;;;;;;;;;;;;;;;26.92;32.45;101587.91;5077074;28;1295;-38
2023/10/07 06:22:48;;;;;;;;;;;;;;;26.98;31.92;101586.38;5084615;28;1244;-39
2023/10/07 06:25:15;;;;;;;;;;;;;;;27.21;32.01;101581.28;5073186;28;821;-42
2023/10/07 06:27:43;;;;;;;;;;;;;;;27.10;32.38;101579.75;5079484;28;1054;-42
2023/10/07 06:30:12;;;;;;;;;;;;;;;27.28;32.17;101577.94;5086975;28;1959;-44
2023/10/07 06:32:44;;;;;;;;;;;;;;;27.25;31.65;101577.25;5085986;28;1086;-44
2023/10/07 06:35:13;;;;;;;;;;;;;;;27.22;31.75;101577.59;5099386;28;1076;-43
2023/10/07 06:37:40;;;;;;;;;;;;;;;27.30;31.92;101576.75;5093400;28;1174;-44
2023/10/07 06:40:21;;;;;;;;;;;;;;;27.29;32.14;101579.63;5079364;28;1043;-45
2023/10/07 06:42:47;;;;;;;;;;;;;;;27.32;31.97;101576.59;5097164;28;1070;-45
2023/10/07 06:45:17;;;;;;;;;;;;;;;27.32;31.60;101574.75;5087639;28;1094;-43
2023/10/07 06:47:46;;;;;;;;;;;;;;;27.31;31.77;101580.31;5078961;28;1093;-42
2023/10/07 06:50:17;;;;;;;;;;;;;;;27.47;31.44;101585.78;5079375;28;1963;-43
2023/10/07 06:52:44;;;;;;;;;;;;;;;27.44;31.67;101580.69;5077562;28;1074;-43
2023/10/07 06:55:11;;;;;;;;;;;;;;;27.62;30.97;101580.56;5078843;28;1074;-44
2023/10/07 06:57:37;;;;;;;;;;;;;;;27.29;30.67;101583.19;5079875;28;1023;-43
2023/10/07 07:00:09;;;;;;;;;;;;;;;27.52;31.13;101585.28;5078795;28;1181;-43
2023/10/07 07:02:35;;;;;;;;;;;;;;;27.78;31.18;101580.78;5078490;28;1071;-44
2023/10/07 07:05:10;;;;;;;;;;;;;;;27.68;30.96;101573.66;5070483;28;1206;-41
2023/10/07 07:07:37;;;;;;;;;;;;;;;27.86;31.39;101578.91;5013491;28;974;-43
2023/10/07 07:10:07;;;;;;;;;;;;;;;27.81;31.88;101578.56;5068859;28;1910;-45
2023/10/07 07:12:33;;;;;;;;;;;;;;;27.93;31.81;101576.38;5089704;28;1017;-41
2023/10/07 07:15:25;;;;;;;;;;;;;;;28.12;32.05;101579.78;5083752;28;1279;-44
2023/10/07 07:18:00;;;;;;;;;;;;;;;28.23;31.50;101574.00;5079673;28;1019;-38
2023/10/07 07:20:48;;;;;;;;;;;;;;;28.32;31.47;101576.72;5073213;28;1248;-42
2023/10/07 07:23:17;;;;;;;;;;;;;;;28.39;31.93;101585.03;5073908;28;1055;-43
2023/10/07 07:25:43;;;;;;;;;;;;;;;28.40;31.88;101584.84;5077132;28;1011;-45
2023/10/07 07:28:09;;;;;;;;;;;;;;;28.16;32.43;101581.09;5077658;28;1215;-41
2023/10/07 07:30:35;;;;;;;;;;;;;;;28.07;32.61;101574.88;5077650;28;1926;-43
2023/10/07 07:33:28;;;;;;;;;;;;;;;28.01;32.66;101580.13;5077329;28;1003;-44
2023/10/07 07:35:56;;;;;;;;;;;;;;;28.15;32.55;101582.13;5074225;28;1693;-42
2023/10/07 07:38:32;;;;;;;;;;;;;;;28.23;32.37;101575.88;5072551;28;1318;-43
2023/10/07 07:41:34;;;;;;;;;;;;;;;28.20;32.23;101577.06;5062192;28;1082;-44
2023/10/07 07:43:59;;;;;;;;;;;;;;;28.43;31.77;101578.22;5068497;28;1618;-43
2023/10/07 07:46:51;;;;;;;;;;;;;;;28.52;31.95;101579.06;5064826;28;1054;-43
2023/10/07 07:49:17;;;;;;;;;;;;;;;28.76;31.34;101574.63;5072633;28;1914;-44
2023/10/07 07:51:44;;;;;;;;;;;;;;;28.65;31.68;101573.97;5074258;28;977;-43
2023/10/07 07:54:09;;;;;;;;;;;;;;;28.80;31.53;101574.09;5077578;28;1254;-41
2023/10/07 07:56:35;;;;;;;;;;;;;;;28.80;31.52;101567.81;5077721;28;1038;-42
2023/10/07 07:59:18;;;;;;;;;;;;;;;29.02;31.44;101570.81;5077045;28;1098;-44
2023/10/07 08:02:12;;;;;;;;;;;;;;;28.78;30.55;101572.59;5077061;28;1102;-42
2023/10/07 08:04:48;;;;;;;;;;;;;;;28.76;31.54;101574.63;5065535;28;1059;-41
2023/10/07 08:09:51;;;;;;;;;;;;;;;28.29;30.50;101550.84;5076067;28;1921;-40
2023/10/07 08:12:19;;;;;;;;;;;;;;;28.58;30.47;101554.00;5076541;28;1113;-35
2023/10/07 08:14:46;;;;;;;;;;;;;;;28.26;31.06;101548.47;5080926;28;1276;-39
2023/10/07 08:17:12;;;;;;;;;;;;;;;28.07;31.22;101555.09;5073054;28;1135;-39
2023/10/07 08:19:38;;;;;;;;;;;;;;;28.31;31.39;101559.63;5075709;28;1138;-36
2023/10/07 08:22:12;;;;;;;;;;;;;;;28.25;31.60;101549.50;5076786;28;1150;-41
2023/10/07 08:24:39;;;;;;;;;;;;;;;28.08;31.89;101543.25;5074817;28;999;-39
2023/10/07 08:27:07;;;;;;;;;;;;;;;28.03;32.48;101551.06;5076553;28;895;-41
2023/10/07 08:29:33;;;;;;;;;;;;;;;28.16;32.29;101555.94;5076608;28;1991;-37
2023/10/07 08:31:59;;;;;;;;;;;;;;;28.09;31.77;101551.19;5076258;28;1083;-38
2023/10/07 08:34:32;;;;;;;;;;;;;;;28.28;31.92;101546.44;5076576;28;1101;-39
2023/10/07 08:37:01;;;;;;;;;;;;;;;28.34;32.26;101548.47;5082697;28;995;-40
2023/10/07 08:39:27;;;;;;;;;;;;;;;28.16;32.52;101537.81;5076523;28;990;-38
2023/10/07 08:41:54;;;;;;;;;;;;;;;28.13;32.49;101535.47;5076338;28;1082;-36
2023/10/07 08:44:21;;;;;;;;;;;;;;;28.09;32.64;101542.25;5075738;28;1119;-40
2023/10/07 08:46:54;;;;;;;;;;;;;;;28.28;32.09;101540.22;5075653;28;1171;-38
2023/10/07 08:49:25;;;;;;;;;;;;;;;27.98;32.92;101525.34;5076126;28;1981;-41
2023/10/07 08:51:52;;;;;;;;;;;;;;;28.16;32.24;101535.13;5073994;28;888;-41
2023/10/07 08:54:17;;;;;;;;;;;;;;;28.24;32.31;101528.88;5076221;28;1119;-39
2023/10/07 08:56:50;;;;;;;;;;;;;;;28.09;32.39;101529.56;5075975;28;998;-40
2023/10/07 08:59:16;;;;;;;;;;;;;;;28.10;32.07;101517.75;5075845;28;1039;-42
2023/10/07 09:01:42;;;;;;;;;;;;;;;28.00;32.24;101511.66;5074179;28;1020;-42
2023/10/07 09:04:08;;;;;;;;;;;;;;;28.04;32.02;101510.31;5060980;28;1023;-40
2023/10/07 09:06:37;;;;;;;;;;;;;;;28.02;32.19;101511.47;5075359;28;1035;-38
2023/10/07 09:09:09;;;;;;;;;;;;;;;27.97;31.78;101510.16;5075970;28;2008;-41
2023/10/07 09:11:36;;;;;;;;;;;;;;;27.87;32.02;101510.31;5075661;28;1007;-34
2023/10/07 09:14:07;;;;;;;;;;;;;;;27.90;31.62;101511.84;5075483;28;1034;-37
2023/10/07 09:16:33;;;;;;;;;;;;;;;28.03;31.31;101503.19;5075581;28;1099;-38
2023/10/07 09:19:03;;;;;;;;;;;;;;;27.85;31.44;101508.78;5076051;28;1007;-42
2023/10/07 09:21:33;;;;;;;;;;;;;;;27.95;31.61;101500.50;5075669;28;1098;-39
2023/10/07 09:24:00;;;;;;;;;;;;;;;28.03;30.80;101494.25;5075200;28;1147;-37
2023/10/07 09:26:34;;;;;;;;;;;;;;;28.18;30.83;101494.38;5074250;28;1042;-39
2023/10/07 09:29:14;;;;;;;;;;;;;;;28.14;29.97;101476.81;5073560;28;1910;-39
2023/10/07 09:31:41;;;;;;;;;;;;;;;28.08;30.66;101478.34;5067448;28;905;-40
2023/10/07 09:34:10;;;;;;;;;;;;;;;28.23;30.83;101476.63;5076852;28;1100;-36
2023/10/07 09:36:43;;;;;;;;;;;;;;;28.29;29.96;101469.69;5075042;28;982;-38
2023/10/07 09:41:37;;;;;;;;;;;;;;;28.09;30.30;101461.09;5073487;28;1099;-35
2023/10/07 09:44:03;;;;;;;;;;;;;;;28.01;30.58;101458.44;5076087;28;1079;-38
2023/10/07 09:46:29;;;;;;;;;;;;;;;27.95;30.41;101459.94;5075770;28;1197;-33
2023/10/07 09:48:57;;;;;;;;;;;;;;;27.94;30.48;101453.72;5075209;28;998;-36
2023/10/07 09:51:29;;;;;;;;;;;;;;;27.89;30.10;101442.56;5075062;28;1902;-31
2023/10/07 09:54:22;;;;;;;;;;;;;;;27.79;30.32;101442.75;5075423;28;1046;-37
2023/10/07 09:57:06;;;;;;;;;;;;;;;28.15;29.81;101427.97;5060251;28;1203;-39
2023/10/07 09:59:43;;;;;;;;;;;;;;;28.13;29.45;101437.28;5079038;28;1050;-33
2023/10/07 10:02:31;;;;;;;;;;;;;;;27.97;29.86;101429.03;5078903;28;1097;-35
2023/10/07 10:05:14;;;;;;;;;;;;;;;27.91;29.51;101418.88;5078845;28;1058;-38
2023/10/07 10:08:13;;;;;;;;;;;;;;;27.95;29.77;101417.53;5079060;28;1071;-36
2023/10/07 10:10:44;;;;;;;;;;;;;;;27.78;29.85;101405.91;5072541;28;1914;-39
2023/10/07 10:13:52;;;;;;;;;;;;;;;27.80;29.56;101408.41;5077328;28;1166;-39
2023/10/07 10:16:29;;;;;;;;;;;;;;;27.67;29.68;101398.13;5078603;28;1249;-38
2023/10/07 10:19:37;;;;;;;;;;;;;;;27.73;29.57;101390.19;5078800;28;1054;-34
2023/10/07 10:21:50;;;;;;;;;;;;;;;28.04;29.70;101377.78;5077441;28;1138;-39
2023/10/07 10:24:15;;;;;;;;;;;;;;;28.22;30.02;101382.13;5078837;28;1110;-40
2023/10/07 10:26:41;;;;;;;;;;;;;;;28.28;29.90;101381.41;5078670;28;1094;-36
2023/10/07 10:29:15;;;;;;;;;;;;;;;28.38;29.87;101383.09;5078568;28;1898;-36
2023/10/07 10:31:48;;;;;;;;;;;;;;;28.55;29.61;101373.88;5082820;28;1221;-41
2023/10/07 10:34:14;;;;;;;;;;;;;;;28.68;29.34;101367.88;5065877;28;1066;-41
2023/10/07 10:36:43;;;;;;;;;;;;;;;28.80;29.15;101356.63;5075923;28;1082;-40
2023/10/07 10:39:31;;;;;;;;;;;;;;;28.81;29.02;101363.75;5087875;28;1125;-37
2023/10/07 10:42:00;;;;;;;;;;;;;;;28.83;29.08;101353.56;5065492;28;964;-34
2023/10/07 10:44:26;;;;;;;;;;;;;;;28.84;29.08;101344.44;5078259;28;1096;-38
2023/10/07 10:46:51;;;;;;;;;;;;;;;28.97;29.09;101351.97;5078552;28;1103;-38
2023/10/07 10:49:18;;;;;;;;;;;;;;;28.92;29.00;101329.97;5078419;28;1914;-40
2023/10/07 10:51:48;;;;;;;;;;;;;;;29.05;28.58;101324.81;5078314;28;836;-38
2023/10/07 10:54:19;;;;;;;;;;;;;;;29.17;28.60;101316.25;5078563;28;1042;-35
2023/10/07 10:57:00;;;;;;;;;;;;;;;29.07;28.60;101311.94;5073345;28;1391;-40
2023/10/07 10:59:42;;;;;;;;;;;;;;;29.08;28.74;101310.91;5077878;28;975;-34
2023/10/07 11:02:12;;;;;;;;;;;;;;;29.19;28.66;101319.63;5078244;28;1034;-38
2023/10/07 11:04:37;;;;;;;;;;;;;;;29.19;28.45;101304.22;5072480;28;1412;-40
2023/10/07 11:07:07;;;;;;;;;;;;;;;29.26;28.20;101304.31;5078094;28;1018;-41
2023/10/07 11:09:38;;;;;;;;;;;;;;;29.24;28.34;101295.53;5076941;28;1909;-39
2023/10/07 11:12:12;;;;;;;;;;;;;;;29.21;28.32;101293.19;5070558;28;1195;-38
2023/10/07 11:14:41;;;;;;;;;;;;;;;29.06;28.41;101283.16;5076668;28;1234;-40
2023/10/07 11:17:09;;;;;;;;;;;;;;;29.02;28.19;101291.84;5078094;28;1147;-39
2023/10/07 11:19:42;;;;;;;;;;;;;;;29.01;28.17;101271.22;5077762;28;1115;-33
2023/10/07 11:22:12;;;;;;;;;;;;;;;28.92;28.53;101268.53;5081678;28;1340;-37
2023/10/07 11:24:39;;;;;;;;;;;;;;;28.85;28.38;101271.13;5079852;28;1054;-40
2023/10/07 11:27:08;;;;;;;;;;;;;;;28.80;28.61;101261.84;5077414;28;1011;-40
2023/10/07 11:29:34;;;;;;;;;;;;;;;28.79;28.55;101262.91;5077770;28;1917;-38
2023/10/07 11:32:03;;;;;;;;;;;;;;;28.79;28.58;101261.03;5077613;28;1135;-34
2023/10/07 11:34:31;;;;;;;;;;;;;;;28.70;28.64;101251.28;5077577;28;1170;-34
2023/10/07 11:37:04;;;;;;;;;;;;;;;28.76;28.58;101255.16;5076121;28;1042;-39
2023/10/07 11:39:30;;;;;;;;;;;;;;;28.85;28.44;101246.75;5077439;28;853;-38
2023/10/07 11:41:55;;;;;;;;;;;;;;;28.90;28.29;101251.63;5076300;28;1181;-38
2023/10/07 11:44:21;;;;;;;;;;;;;;;28.70;28.47;101244.00;5064133;28;1159;-39
2023/10/07 11:46:49;;;;;;;;;;;;;;;29.07;27.32;101230.69;5077150;28;1082;-34
2023/10/07 11:49:17;;;;;;;;;;;;;;;29.04;27.52;101225.63;5074472;28;1913;-41
2023/10/07 11:51:44;;;;;;;;;;;;;;;29.11;27.50;101228.47;5071003;28;1143;-37
2023/10/07 11:54:12;;;;;;;;;;;;;;;29.27;26.79;101229.28;5075564;28;1082;-40
2023/10/07 11:56:39;;;;;;;;;;;;;;;29.19;26.71;101224.81;5078155;28;1135;-39
2023/10/07 11:59:05;;;;;;;;;;;;;;;29.21;26.98;101229.00;5074886;28;869;-38
2023/10/07 12:01:32;;;;;;;;;;;;;;;29.28;26.84;101212.84;5068405;28;1211;-40
2023/10/07 12:03:58;;;;;;;;;;;;;;;29.19;26.87;101212.13;5075082;28;1035;-40
2023/10/07 12:06:24;;;;;;;;;;;;;;;29.02;26.47;101203.31;5070707;28;1014;-40
2023/10/07 12:08:50;;;;;;;;;;;;;;;29.18;26.50;101196.00;5074886;28;1043;-42
2023/10/07 12:11:18;;;;;;;;;;;;;;;29.19;26.48;101198.56;5074901;28;1902;-38
2023/10/07 12:13:46;;;;;;;;;;;;;;;29.20;26.69;101197.53;5075893;28;1059;-42
2023/10/07 12:16:12;;;;;;;;;;;;;;;29.40;26.19;101190.69;5072793;28;1332;-42
2023/10/07 12:18:37;;;;;;;;;;;;;;;29.23;26.70;101190.06;5073722;28;983;-43
2023/10/07 12:21:11;;;;;;;;;;;;;;;29.06;26.96;101182.13;5064860;28;1292;-41
2023/10/07 12:23:38;;;;;;;;;;;;;;;29.07;26.91;101184.63;5062948;28;1011;-39
2023/10/07 12:26:09;;;;;;;;;;;;;;;29.18;26.43;101177.91;5064327;28;1007;-42
2023/10/07 12:28:35;;;;;;;;;;;;;;;29.00;26.97;101174.72;5071316;28;1218;-40
2023/10/07 12:31:01;;;;;;;;;;;;;;;29.00;26.87;101167.44;5072817;28;1911;-42
2023/10/07 12:33:26;;;;;;;;;;;;;;;28.85;27.16;101161.97;5075942;28;1345;-41
2023/10/07 12:35:53;;;;;;;;;;;;;;;29.00;26.84;101161.16;5076567;28;1003;-38
2023/10/07 12:38:19;;;;;;;;;;;;;;;29.03;27.04;101156.22;5076516;28;1062;-43
2023/10/07 12:40:44;;;;;;;;;;;;;;;28.98;26.86;101147.00;5076051;28;826;-40
2023/10/07 12:43:10;;;;;;;;;;;;;;;29.06;26.75;101145.03;5075607;28;1169;-41
2023/10/07 12:45:36;;;;;;;;;;;;;;;29.04;26.98;101146.25;5070303;28;1103;-43
2023/10/07 12:48:03;;;;;;;;;;;;;;;29.42;26.57;101145.28;5075246;28;1407;-41
2023/10/07 12:50:29;;;;;;;;;;;;;;;29.28;26.89;101134.28;5072615;28;1902;-41
2023/10/07 12:52:58;;;;;;;;;;;;;;;29.18;26.70;101144.53;5079890;28;902;-42
2023/10/07 12:55:29;;;;;;;;;;;;;;;29.11;27.66;101138.22;5075768;28;991;-43
2023/10/07 12:57:55;;;;;;;;;;;;;;;29.41;27.98;101128.16;5075784;28;1087;-38
2023/10/07 13:00:27;;;;;;;;;;;;;;;29.11;28.69;101122.81;5076073;28;1041;-42
2023/10/07 13:02:53;;;;;;;;;;;;;;;29.13;28.85;101120.72;5076003;28;1089;-40
2023/10/07 13:05:19;;;;;;;;;;;;;;;29.30;28.69;101115.97;5075418;28;1001;-39
2023/10/07 13:07:45;;;;;;;;;;;;;;;28.93;29.92;101121.28;5075750;28;1119;-40
2023/10/07 13:10:14;;;;;;;;;;;;;;;28.91;30.02;101114.38;5075821;28;1979;-43
2023/10/07 13:12:40;;;;;;;;;;;;;;;28.55;30.85;101107.78;5069614;28;1251;-41
2023/10/07 13:15:14;;;;;;;;;;;;;;;28.45;31.09;101106.19;5070706;28;927;-42
2023/10/07 13:17:45;;;;;;;;;;;;;;;28.37;31.42;101106.28;5075774;28;1011;-42
2023/10/07 13:20:17;;;;;;;;;;;;;;;28.58;31.26;101110.13;5076210;28;1011;-41
2023/10/07 13:22:42;;;;;;;;;;;;;;;28.73;30.97;101105.56;5063780;28;993;-45
2023/10/07 13:25:09;;;;;;;;;;;;;;;28.55;31.30;101095.09;5075798;28;877;-41
2023/10/07 13:27:39;;;;;;;;;;;;;;;28.64;30.97;101092.31;5075547;28;998;-41
2023/10/07 13:30:11;;;;;;;;;;;;;;;28.75;30.70;101086.44;5075629;28;1993;-38
2023/10/07 13:32:40;;;;;;;;;;;;;;;28.83;30.64;101089.06;5075153;28;1014;-39
2023/10/07 13:35:08;;;;;;;;;;;;;;;28.73;30.66;101074.94;5077054;28;1273;-40
2023/10/07 13:37:34;;;;;;;;;;;;;;;28.80;30.77;101072.34;5080287;28;1114;-40